createdAt,value
2018-01-30T00:00:25.230Z,1.47
2018-01-30T00:02:52.283Z,1.90
2018-01-30T00:05:19.390Z,1.87
2018-01-30T00:07:45.750Z,1.97
2018-01-30T00:10:12.081Z,1.80
2018-01-30T00:12:38.458Z,1.90
2018-01-30T00:15:05.615Z,2.00
2018-01-30T00:17:32.701Z,1.67
2018-01-30T00:19:59.071Z,1.77
2018-01-30T00:22:26.985Z,1.70
2018-01-30T00:24:53.447Z,2.07
2018-01-30T00:27:19.911Z,2.07
2018-01-30T00:29:46.308Z,1.40
2018-01-30T00:32:12.679Z,1.60
2018-01-30T00:34:39.014Z,1.53
2018-01-30T00:37:05.390Z,1.97
2018-01-30T00:39:32.500Z,1.60
2018-01-30T00:41:58.876Z,1.60
2018-01-30T00:44:25.207Z,1.87
2018-01-30T00:46:51.567Z,1.90
2018-01-30T00:49:18.633Z,1.70
2018-01-30T00:51:45.021Z,1.80
2018-01-30T00:54:11.378Z,1.70
2018-01-30T00:56:37.716Z,1.80
2018-01-30T00:59:04.114Z,1.53
2018-01-30T01:01:30.484Z,1.67
2018-01-30T01:03:56.847Z,2.10
2018-01-30T01:06:23.220Z,1.13
2018-01-30T01:08:49.596Z,1.50
2018-01-30T01:11:15.928Z,1.50
2018-01-30T01:13:42.384Z,1.83
2018-01-30T01:16:09.569Z,2.40
2018-01-30T01:18:35.954Z,2.23
2018-01-30T01:21:03.822Z,1.70
2018-01-30T01:23:30.228Z,1.40
2018-01-30T01:25:56.585Z,2.00
2018-01-30T01:28:22.995Z,1.50
2018-01-30T01:30:49.371Z,1.80
2018-01-30T01:33:15.788Z,1.60
2018-01-30T01:35:42.108Z,1.73
2018-01-30T01:38:08.495Z,1.80
2018-01-30T01:40:34.889Z,2.87
2018-01-30T01:43:01.220Z,3.10
2018-01-30T01:45:27.574Z,1.70
2018-01-30T01:47:53.930Z,1.83
2018-01-30T01:50:20.326Z,1.70
2018-01-30T01:52:46.696Z,2.20
2018-01-30T01:55:13.067Z,1.37
2018-01-30T01:57:40.149Z,2.33
2018-01-30T02:00:06.544Z,1.43
2018-01-30T02:02:32.937Z,2.63
2018-01-30T02:04:59.315Z,2.50
2018-01-30T02:07:25.682Z,1.30
2018-01-30T02:09:52.776Z,1.83
2018-01-30T02:12:19.147Z,1.40
2018-01-30T02:14:45.531Z,1.33
2018-01-30T02:17:11.904Z,1.37
2018-01-30T02:19:38.324Z,1.50
2018-01-30T02:22:04.704Z,1.73
2018-01-30T02:24:31.054Z,1.40
2018-01-30T02:26:58.169Z,2.60
2018-01-30T02:29:24.537Z,1.70
2018-01-30T02:31:50.921Z,4.30
2018-01-30T02:34:17.266Z,1.37
2018-01-30T02:36:43.656Z,3.30
2018-01-30T02:39:10.760Z,2.57
2018-01-30T02:41:37.118Z,2.70
2018-01-30T02:44:04.211Z,3.80
2018-01-30T02:46:30.592Z,2.23
2018-01-30T02:48:56.996Z,3.43
2018-01-30T02:51:23.421Z,2.43
2018-01-30T02:53:50.526Z,3.27
2018-01-30T02:56:16.868Z,2.90
2018-01-30T02:58:43.252Z,1.77
2018-01-30T03:01:10.377Z,3.13
2018-01-30T03:03:37.480Z,3.20
2018-01-30T03:06:03.842Z,2.50
2018-01-30T03:08:30.217Z,1.97
2018-01-30T03:10:57.303Z,2.13
2018-01-30T03:13:23.658Z,3.57
2018-01-30T03:15:50.024Z,3.10
2018-01-30T03:18:16.359Z,2.33
2018-01-30T03:20:42.735Z,1.30
2018-01-30T03:23:09.852Z,2.13
2018-01-30T03:25:37.708Z,2.93
2018-01-30T03:28:04.071Z,1.90
2018-01-30T03:30:30.441Z,2.90
2018-01-30T03:32:56.808Z,2.93
2018-01-30T03:35:23.148Z,4.03
2018-01-30T03:37:49.531Z,3.20
2018-01-30T03:40:16.658Z,3.43
2018-01-30T03:42:42.977Z,4.43
2018-01-30T03:45:09.296Z,3.77
2018-01-30T03:47:35.675Z,3.43
2018-01-30T03:50:02.063Z,3.53
2018-01-30T03:52:28.419Z,5.67
2018-01-30T03:54:54.795Z,5.23
2018-01-30T03:57:21.160Z,3.47
2018-01-30T03:59:47.536Z,3.20
2018-01-30T04:02:13.912Z,3.93
2018-01-30T04:04:40.279Z,1.97
2018-01-30T04:07:06.629Z,3.20
2018-01-30T04:09:33.007Z,2.07
2018-01-30T04:11:59.383Z,2.80
2018-01-30T04:14:25.747Z,2.30
2018-01-30T04:16:52.116Z,3.40
2018-01-30T04:19:18.480Z,3.33
2018-01-30T04:21:45.581Z,3.17
2018-01-30T04:24:11.983Z,1.80
2018-01-30T04:26:39.097Z,3.50
2018-01-30T04:29:05.491Z,2.40
2018-01-30T04:31:31.880Z,3.53
2018-01-30T04:33:58.994Z,1.80
2018-01-30T04:36:25.383Z,4.20
2018-01-30T04:38:51.761Z,2.37
2018-01-30T04:41:18.161Z,3.63
2018-01-30T04:43:45.266Z,3.70
2018-01-30T04:46:11.641Z,3.20
2018-01-30T04:48:38.027Z,4.30
2018-01-30T04:51:04.377Z,4.03
2018-01-30T04:53:30.758Z,3.70
2018-01-30T04:55:57.079Z,3.53
2018-01-30T04:58:24.198Z,3.83
2018-01-30T05:00:50.560Z,2.13
2018-01-30T05:03:16.920Z,5.20
2018-01-30T05:05:43.303Z,4.57
2018-01-30T05:08:09.677Z,3.63
2018-01-30T05:10:36.092Z,1.77
2018-01-30T05:13:02.480Z,3.40
2018-01-30T05:15:29.599Z,1.83
2018-01-30T05:17:55.975Z,2.23
2018-01-30T05:20:23.125Z,2.60
2018-01-30T05:22:49.439Z,1.17
2018-01-30T05:25:15.877Z,1.07
2018-01-30T05:27:42.274Z,1.30
2018-01-30T05:30:08.638Z,1.10
2018-01-30T05:32:35.015Z,1.10
2018-01-30T05:35:02.119Z,1.47
2018-01-30T05:37:28.483Z,1.40
2018-01-30T05:39:55.816Z,1.33
2018-01-30T05:42:22.152Z,1.57
2018-01-30T05:44:48.532Z,1.60
2018-01-30T05:47:15.608Z,1.53
2018-01-30T05:49:41.985Z,1.20
2018-01-30T05:52:08.371Z,1.50
2018-01-30T05:54:35.442Z,1.50
2018-01-30T05:57:01.888Z,2.17
2018-01-30T05:59:28.313Z,1.83
2018-01-30T06:01:54.747Z,1.53
2018-01-30T06:04:21.102Z,1.37
2018-01-30T06:06:47.488Z,1.57
2018-01-30T06:09:13.890Z,2.10
2018-01-30T06:11:40.354Z,2.30
2018-01-30T06:14:06.732Z,2.70
2018-01-30T06:16:33.865Z,2.00
2018-01-30T06:19:00.271Z,3.20
2018-01-30T06:21:26.655Z,2.53
2018-01-30T06:23:53.773Z,2.13
2018-01-30T06:26:20.111Z,3.03
2018-01-30T06:28:46.487Z,2.40
2018-01-30T06:31:13.618Z,3.13
2018-01-30T06:33:39.975Z,3.17
2018-01-30T06:36:07.074Z,2.80
2018-01-30T06:38:33.431Z,3.00
2018-01-30T06:40:59.845Z,3.67
2018-01-30T06:43:26.224Z,4.10
2018-01-30T06:45:52.588Z,3.20
2018-01-30T06:48:19.749Z,3.10
2018-01-30T06:50:46.152Z,5.47
2018-01-30T06:53:12.576Z,3.03
2018-01-30T06:55:38.943Z,3.20
2018-01-30T06:58:06.035Z,3.00
2018-01-30T07:00:32.412Z,3.23
2018-01-30T07:02:58.744Z,3.37
2018-01-30T07:05:25.147Z,3.90
2018-01-30T07:07:51.530Z,2.50
2018-01-30T07:10:17.952Z,2.47
2018-01-30T07:12:44.959Z,2.60
2018-01-30T07:15:11.301Z,2.77
2018-01-30T07:17:37.658Z,2.63
2018-01-30T07:20:04.084Z,2.53
2018-01-30T07:22:30.468Z,2.83
2018-01-30T07:24:56.851Z,3.27
2018-01-30T07:27:23.275Z,2.47
2018-01-30T07:29:50.351Z,3.17
2018-01-30T07:32:16.745Z,3.23
2018-01-30T07:34:43.115Z,2.93
2018-01-30T07:37:09.486Z,2.90
2018-01-30T07:39:35.872Z,2.57
2018-01-30T07:42:03.005Z,3.03
2018-01-30T07:44:29.384Z,2.73
2018-01-30T07:46:55.736Z,2.60
2018-01-30T07:49:22.057Z,2.87
2018-01-30T07:51:48.390Z,3.00
2018-01-30T07:54:14.764Z,2.90
2018-01-30T07:56:41.123Z,2.80
2018-01-30T07:59:07.473Z,3.07
2018-01-30T08:01:34.553Z,2.63
2018-01-30T08:04:00.956Z,2.70
2018-01-30T08:06:27.280Z,2.80
2018-01-30T08:08:55.147Z,2.20
2018-01-30T08:11:21.534Z,2.70
2018-01-30T08:13:47.848Z,2.50
2018-01-30T08:16:14.939Z,2.70
2018-01-30T08:18:41.301Z,2.43
2018-01-30T08:21:07.682Z,2.43
2018-01-30T08:23:34.764Z,2.33
2018-01-30T08:26:01.162Z,2.93
2018-01-30T08:28:28.251Z,2.60
2018-01-30T08:30:54.611Z,2.00
2018-01-30T08:33:20.956Z,2.03
2018-01-30T08:35:47.293Z,2.30
2018-01-30T08:38:13.649Z,2.30
2018-01-30T08:40:40.012Z,2.27
2018-01-30T08:43:07.096Z,2.10
2018-01-30T08:45:33.483Z,2.07
2018-01-30T08:47:59.835Z,2.03
2018-01-30T08:50:26.913Z,2.40
2018-01-30T08:52:53.284Z,2.10
2018-01-30T08:55:19.643Z,2.70
2018-01-30T08:57:45.983Z,2.23
2018-01-30T09:00:12.326Z,2.17
2018-01-30T09:02:38.671Z,2.10
2018-01-30T09:05:05.787Z,2.07
2018-01-30T09:07:32.124Z,2.03
2018-01-30T09:09:58.504Z,2.30
2018-01-30T09:12:25.591Z,2.20
2018-01-30T09:14:51.967Z,2.17
2018-01-30T09:17:18.365Z,1.97
2018-01-30T09:19:44.724Z,2.00
2018-01-30T09:22:11.085Z,2.50
2018-01-30T09:24:44.499Z,2.17
2018-01-30T09:27:11.631Z,1.90
2018-01-30T09:29:38.072Z,1.83
2018-01-30T09:32:04.408Z,2.10
2018-01-30T09:34:31.511Z,2.00
2018-01-30T09:36:57.905Z,2.20
2018-01-30T09:39:24.258Z,2.27
2018-01-30T09:41:51.368Z,1.50
2018-01-30T09:44:17.748Z,1.87
2018-01-30T09:46:44.875Z,2.10
2018-01-30T09:49:11.219Z,2.10
2018-01-30T09:51:37.668Z,1.90
2018-01-30T09:54:04.781Z,1.93
2018-01-30T09:56:31.140Z,1.90
2018-01-30T09:58:57.503Z,1.80
2018-01-30T10:01:24.648Z,2.27
2018-01-30T10:03:51.041Z,2.27
2018-01-30T10:06:17.415Z,1.50
2018-01-30T10:08:43.796Z,2.10
2018-01-30T10:11:10.144Z,1.67
2018-01-30T10:13:36.597Z,1.87
2018-01-30T10:16:02.990Z,1.70
2018-01-30T10:18:30.147Z,1.73
2018-01-30T10:20:57.228Z,2.10
2018-01-30T10:23:23.595Z,2.17
2018-01-30T10:25:49.964Z,1.73
2018-01-30T10:28:17.057Z,1.40
2018-01-30T10:30:43.396Z,1.60
2018-01-30T10:33:09.751Z,1.70
2018-01-30T10:35:36.103Z,1.80
2018-01-30T10:38:02.531Z,2.43
2018-01-30T10:40:28.871Z,1.80
2018-01-30T10:42:55.239Z,1.80
2018-01-30T10:45:22.336Z,1.60
2018-01-30T10:47:48.681Z,1.70
2018-01-30T10:50:15.038Z,1.60
2018-01-30T10:52:41.412Z,1.47
2018-01-30T10:55:08.488Z,2.00
2018-01-30T10:57:34.827Z,1.83
2018-01-30T11:00:01.225Z,1.80
2018-01-30T11:02:27.599Z,1.47
2018-01-30T11:04:53.939Z,2.30
2018-01-30T11:07:20.311Z,1.77
2018-01-30T11:09:46.653Z,2.00
2018-01-30T11:12:12.992Z,1.83
2018-01-30T11:14:39.340Z,1.50
2018-01-30T11:17:05.715Z,1.70
2018-01-30T11:19:32.799Z,1.60
2018-01-30T11:21:59.148Z,1.57
2018-01-30T11:24:25.495Z,2.27
2018-01-30T11:26:51.827Z,2.10
2018-01-30T11:29:18.182Z,1.80
2018-01-30T11:31:44.541Z,1.80
2018-01-30T11:34:11.632Z,1.73
2018-01-30T11:36:37.984Z,1.83
2018-01-30T11:39:04.369Z,1.83
2018-01-30T11:41:30.695Z,1.70
2018-01-30T11:43:57.796Z,2.20
2018-01-30T11:46:24.133Z,1.70
2018-01-30T11:48:50.484Z,1.60
2018-01-30T11:51:16.803Z,1.90
2018-01-30T11:53:43.163Z,1.80
2018-01-30T11:56:09.501Z,1.93
2018-01-30T11:58:35.839Z,1.50
2018-01-30T12:01:02.268Z,1.47
2018-01-30T12:03:28.634Z,1.60
2018-01-30T12:05:55.715Z,2.10
2018-01-30T12:08:22.095Z,1.80
2018-01-30T12:10:48.457Z,1.90
2018-01-30T12:13:14.816Z,1.90
2018-01-30T12:15:41.908Z,1.90
2018-01-30T12:18:08.243Z,1.97
2018-01-30T12:20:34.602Z,1.90
2018-01-30T12:23:00.934Z,1.60
2018-01-30T12:25:27.279Z,1.80
2018-01-30T12:27:53.635Z,1.50
2018-01-30T12:30:20.744Z,1.73
2018-01-30T12:32:47.088Z,1.70
2018-01-30T12:35:13.455Z,1.50
2018-01-30T12:37:39.782Z,1.67
2018-01-30T12:40:06.136Z,1.70
2018-01-30T12:42:33.224Z,1.80
2018-01-30T12:44:59.572Z,1.80
2018-01-30T12:47:25.938Z,1.73
2018-01-30T12:49:52.289Z,1.70
2018-01-30T12:52:18.656Z,1.60
2018-01-30T12:54:45.020Z,2.03
2018-01-30T12:57:11.380Z,1.33
2018-01-30T12:59:37.722Z,1.40
2018-01-30T13:02:04.087Z,1.57
2018-01-30T13:04:31.182Z,1.70
2018-01-30T13:06:57.533Z,1.57
2018-01-30T13:09:23.904Z,1.60
2018-01-30T13:11:50.243Z,1.77
2018-01-30T13:14:17.344Z,2.17
2018-01-30T13:16:43.720Z,1.77
2018-01-30T13:19:10.820Z,1.30
2018-01-30T13:21:37.226Z,1.70
2018-01-30T13:24:04.347Z,1.50
2018-01-30T13:26:30.722Z,2.00
2018-01-30T13:28:57.803Z,1.80
2018-01-30T13:31:24.161Z,1.90
2018-01-30T13:33:50.499Z,1.83
2018-01-30T13:36:16.868Z,2.10
2018-01-30T13:38:43.257Z,1.47
2018-01-30T13:41:09.655Z,1.63
2018-01-30T13:43:35.998Z,1.77
2018-01-30T13:46:03.129Z,1.43
2018-01-30T13:48:29.479Z,1.50
2018-01-30T13:50:55.829Z,1.60
2018-01-30T13:53:22.938Z,1.73
2018-01-30T13:55:49.279Z,1.67
2018-01-30T13:58:15.643Z,1.90
2018-01-30T14:00:41.987Z,1.70
2018-01-30T14:03:09.093Z,1.67
2018-01-30T14:05:35.424Z,1.70
2018-01-30T14:08:01.757Z,1.70
2018-01-30T14:10:28.130Z,1.93
2018-01-30T14:12:54.471Z,1.90
2018-01-30T14:15:20.811Z,1.70
2018-01-30T14:17:47.163Z,1.63
2018-01-30T14:20:14.248Z,1.47
2018-01-30T14:22:40.644Z,1.70
2018-01-30T14:25:07.026Z,1.40
2018-01-30T14:27:33.371Z,1.23
2018-01-30T14:29:59.720Z,1.30
2018-01-30T14:32:26.076Z,1.60
2018-01-30T14:34:52.431Z,1.77
2018-01-30T14:37:18.812Z,1.80
2018-01-30T14:39:45.141Z,1.80
2018-01-30T14:42:11.483Z,1.90
2018-01-30T14:44:37.859Z,1.77
2018-01-30T14:47:04.190Z,2.37
2018-01-30T14:49:30.577Z,2.13
2018-01-30T14:51:57.672Z,1.90
2018-01-30T14:54:24.103Z,1.90
2018-01-30T14:56:50.438Z,2.20
2018-01-30T14:59:16.815Z,1.93
2018-01-30T15:01:43.172Z,2.20
2018-01-30T15:04:10.284Z,2.10
2018-01-30T15:06:36.652Z,2.70
2018-01-30T15:09:03.817Z,2.13
2018-01-30T15:11:30.905Z,2.40
2018-01-30T15:13:57.272Z,2.70
2018-01-30T15:16:23.639Z,1.97
2018-01-30T15:18:50.815Z,1.83
2018-01-30T15:21:17.169Z,1.93
2018-01-30T15:23:43.528Z,2.27
2018-01-30T15:26:09.910Z,2.10
2018-01-30T15:28:37.063Z,2.00
2018-01-30T15:31:04.135Z,2.10
2018-01-30T15:33:30.504Z,2.10
2018-01-30T15:35:56.872Z,1.70
2018-01-30T15:38:23.282Z,2.10
2018-01-30T15:40:49.644Z,1.80
2018-01-30T15:43:16.060Z,2.30
2018-01-30T15:45:42.415Z,2.73
2018-01-30T15:48:08.801Z,2.97
2018-01-30T15:50:35.204Z,2.70
2018-01-30T15:53:01.568Z,3.00
2018-01-30T15:55:27.959Z,2.97
2018-01-30T15:57:54.360Z,2.70
2018-01-30T16:00:20.743Z,2.50
2018-01-30T16:02:47.093Z,2.97
2018-01-30T16:05:14.231Z,2.53
2018-01-30T16:07:40.612Z,2.17
2018-01-30T16:10:07.019Z,2.10
2018-01-30T16:12:34.167Z,2.27
2018-01-30T16:15:00.549Z,1.87
2018-01-30T16:17:26.983Z,2.37
2018-01-30T16:19:53.357Z,2.20
2018-01-30T16:22:19.713Z,3.23
2018-01-30T16:24:46.859Z,2.70
2018-01-30T16:27:13.288Z,1.97
2018-01-30T16:29:39.701Z,2.40
2018-01-30T16:32:06.089Z,1.63
2018-01-30T16:34:32.472Z,1.90
2018-01-30T16:36:58.898Z,2.00
2018-01-30T16:39:25.261Z,2.10
2018-01-30T16:41:51.669Z,1.87
2018-01-30T16:44:18.052Z,1.80
2018-01-30T16:52:19.742Z,2.20
2018-01-30T16:54:46.102Z,2.30
2018-01-30T16:57:13.192Z,1.90
2018-01-30T16:59:39.575Z,1.80
2018-01-30T17:02:05.930Z,1.73
2018-01-30T17:04:33.013Z,2.10
2018-01-30T17:06:59.390Z,2.10
2018-01-30T17:09:25.742Z,1.73
2018-01-30T17:11:52.889Z,1.70
2018-01-30T17:14:19.256Z,1.60
2018-01-30T17:16:46.346Z,1.73
2018-01-30T17:19:12.723Z,1.90
2018-01-30T17:21:39.115Z,1.67
2018-01-30T17:24:05.486Z,2.00
2018-01-30T17:26:31.835Z,1.90
2018-01-30T17:28:58.268Z,2.07
2018-01-30T17:31:24.689Z,1.60
2018-01-30T17:33:51.085Z,1.93
2018-01-30T17:36:18.155Z,2.20
2018-01-30T17:38:44.537Z,2.10
2018-01-30T17:41:10.944Z,1.90
2018-01-30T17:43:37.299Z,2.10
2018-01-30T17:46:03.749Z,2.40
2018-01-30T17:48:30.181Z,1.90
2018-01-30T17:50:56.608Z,1.90
2018-01-30T17:53:23.065Z,1.90
2018-01-30T17:55:49.461Z,1.97
2018-01-30T17:58:15.807Z,2.30
2018-01-30T18:00:42.256Z,2.10
2018-01-30T18:03:08.621Z,1.80
2018-01-30T18:05:34.982Z,2.00
2018-01-30T18:08:02.112Z,2.00
2018-01-30T18:10:28.465Z,1.97
2018-01-30T18:12:54.831Z,2.20
2018-01-30T18:15:21.303Z,2.37
2018-01-30T18:17:47.641Z,2.23
2018-01-30T18:20:14.015Z,2.00
2018-01-30T18:22:40.433Z,1.67
2018-01-30T18:25:06.784Z,1.97
2018-01-30T18:27:33.140Z,2.00
2018-01-30T18:30:00.249Z,2.23
2018-01-30T18:32:26.677Z,1.90
2018-01-30T18:34:53.020Z,2.00
2018-01-30T18:37:19.443Z,1.70
2018-01-30T18:39:45.847Z,1.90
2018-01-30T18:42:12.934Z,2.57
2018-01-30T18:44:39.336Z,2.23
2018-01-30T18:47:06.441Z,2.47
2018-01-30T18:49:32.791Z,1.90
2018-01-30T18:54:56.304Z,1.90
2018-01-30T18:57:31.302Z,1.90
2018-01-30T18:59:57.690Z,1.90
2018-01-30T19:02:24.036Z,2.30
2018-01-30T19:04:50.417Z,1.90
2018-01-30T19:07:16.827Z,2.13
2018-01-30T19:09:43.193Z,1.90
2018-01-30T19:12:09.588Z,2.17
2018-01-30T19:14:35.929Z,2.33
2018-01-30T19:17:02.284Z,2.90
2018-01-30T19:19:28.640Z,2.30
2018-01-30T19:21:55.029Z,2.13
2018-01-30T19:24:21.395Z,2.43
2018-01-30T19:26:47.777Z,2.43
2018-01-30T19:29:14.943Z,2.23
2018-01-30T19:31:42.023Z,2.40
2018-01-30T19:34:08.364Z,3.27
2018-01-30T19:36:34.816Z,2.80
2018-01-30T19:39:01.180Z,2.70
2018-01-30T19:41:27.519Z,2.40
2018-01-30T19:43:53.882Z,2.80
2018-01-30T19:46:21.122Z,2.50
2018-01-30T19:48:48.215Z,2.40
2018-01-30T19:51:14.587Z,2.30
2018-01-30T19:53:40.964Z,2.60
2018-01-30T19:56:08.060Z,2.83
2018-01-30T19:58:34.462Z,2.33
2018-01-30T20:01:01.533Z,2.57
2018-01-30T20:03:27.900Z,2.70
2018-01-30T20:05:54.916Z,2.60
2018-01-30T20:08:21.265Z,2.27
2018-01-30T20:10:47.603Z,3.00
2018-01-30T20:13:13.956Z,3.10
2018-01-30T20:15:40.291Z,3.07
2018-01-30T20:18:06.689Z,2.30
2018-01-30T20:20:33.796Z,2.40
2018-01-30T20:23:00.151Z,3.03
2018-01-30T20:25:26.508Z,2.30
2018-01-30T20:27:53.643Z,2.90
2018-01-30T20:30:19.986Z,2.60
2018-01-30T20:32:47.133Z,2.67
2018-01-30T20:35:13.537Z,2.80
2018-01-30T20:37:39.983Z,2.77
2018-01-30T20:42:41.492Z,2.57
2018-01-30T20:45:07.844Z,2.60
2018-01-30T20:47:34.934Z,2.60
2018-01-30T20:50:01.291Z,3.00
2018-01-30T20:52:27.699Z,3.13
2018-01-30T20:54:54.044Z,2.67
2018-01-30T20:57:20.436Z,3.17
2018-01-30T20:59:47.535Z,2.43
2018-01-30T21:02:13.907Z,2.50
2018-01-30T21:04:40.271Z,2.90
2018-01-30T21:07:07.358Z,2.50
2018-01-30T21:09:33.741Z,3.00
2018-01-30T21:12:00.084Z,2.40
2018-01-30T21:14:27.180Z,2.77
2018-01-30T21:16:53.563Z,2.77
2018-01-30T21:19:19.903Z,2.20
2018-01-30T21:21:46.315Z,2.90
2018-01-30T21:24:12.720Z,2.90
2018-01-30T21:26:39.097Z,2.67
2018-01-30T21:29:05.441Z,2.67
2018-01-30T21:31:31.844Z,2.80
2018-01-30T21:33:58.176Z,2.83
2018-01-30T21:36:24.548Z,2.63
2018-01-30T21:38:50.939Z,2.50
2018-01-30T21:41:17.308Z,2.50
2018-01-30T21:43:43.641Z,2.50
2018-01-30T21:46:10.036Z,2.40
2018-01-30T21:48:37.136Z,2.77
2018-01-30T21:51:03.535Z,3.00
2018-01-30T21:53:30.627Z,3.00
2018-01-30T21:55:56.993Z,2.97
2018-01-30T21:58:24.825Z,2.73
2018-01-30T22:00:51.205Z,2.80
2018-01-30T22:03:17.557Z,3.07
2018-01-30T22:05:44.680Z,2.53
2018-01-30T22:08:11.086Z,3.10
2018-01-30T22:10:37.496Z,2.90
2018-01-30T22:13:04.571Z,2.60
2018-01-30T22:15:30.919Z,2.73
2018-01-30T22:17:57.295Z,2.97
2018-01-30T22:20:23.631Z,3.50
2018-01-30T22:22:49.967Z,3.10
2018-01-30T22:25:16.323Z,2.80
2018-01-30T22:27:43.412Z,2.93
2018-01-30T22:30:09.763Z,2.97
2018-01-30T22:32:36.193Z,2.93
2018-01-30T22:35:02.594Z,2.80
2018-01-30T22:37:29.660Z,2.80
2018-01-30T22:39:56.063Z,3.13
2018-01-30T22:42:22.410Z,2.90
2018-01-30T22:44:48.800Z,3.47
